Time;durP1;ratioP1;P1;durP2;ratioP2;P2;SDS_P1;SDS_P2;PMS_P1;PMS_P2;Temp;Humidity;BMP_temperature;BMP_pressure;BME280_temperature;BME280_humidity;BME280_pressure;Samples;Min_cycle;Max_cycle;Signal;HPM_P1;HPM_P2
2022/06/14 00:02:01;;;;;;;3.67;0.77;;;;;;;;;;10487790;28;20214;-72
2022/06/14 00:07:02;;;;;;;1.80;0.88;;;;;;;;;;10490093;28;20190;-72
2022/06/14 00:12:03;;;;;;;2.88;0.82;;;;;;;;;;10476324;28;20752;-71
2022/06/14 00:17:05;;;;;;;2.85;0.70;;;;;;;;;;10491797;28;20179;-71
2022/06/14 00:22:07;;;;;;;2.40;0.73;;;;;;;;;;10492239;28;20888;-72
2022/06/14 00:27:08;;;;;;;2.60;0.73;;;;;;;;;;10489117;28;20204;-71
2022/06/14 00:32:09;;;;;;;1.52;0.93;;;;;;;;;;10483578;28;20567;-71
2022/06/14 00:37:14;;;;;;;2.45;0.90;;;;;;;;;;10459975;28;20649;-72
2022/06/14 00:42:19;;;;;;;1.25;0.57;;;;;;;;;;10490423;28;20306;-72
2022/06/14 00:47:20;;;;;;;4.65;1.00;;;;;;;;;;10489317;28;20718;-72
2022/06/14 00:52:26;;;;;;;0.50;0.50;;;;;;;;;;10444081;28;20185;-71
2022/06/14 00:57:29;;;;;;;1.38;0.70;;;;;;;;;;10445933;28;20290;-72
2022/06/14 01:02:31;;;;;;;1.40;1.00;;;;;;;;;;10479836;28;20217;-72
2022/06/14 01:07:36;;;;;;;1.65;0.70;;;;;;;;;;10492332;28;20588;-71
2022/06/14 01:12:38;;;;;;;3.28;0.70;;;;;;;;;;10491298;28;20208;-72
2022/06/14 01:17:48;;;;;;;1.75;0.80;;;;;;;;;;10485318;28;20178;-71
2022/06/14 01:22:51;;;;;;;3.03;0.73;;;;;;;;;;10484843;28;20263;-71
2022/06/14 01:27:52;;;;;;;2.08;0.93;;;;;;;;;;10480972;28;20201;-72
2022/06/14 01:33:03;;;;;;;3.25;1.10;;;;;;;;;;10479645;28;20889;-72
2022/06/14 01:38:08;;;;;;;5.15;0.90;;;;;;;;;;10482714;28;20183;-71
2022/06/14 01:43:28;;;;;;;1.20;0.90;;;;;;;;;;10483067;28;20301;-71
2022/06/14 01:48:31;;;;;;;4.05;1.13;;;;;;;;;;10487426;28;21018;-71
2022/06/14 01:53:38;;;;;;;1.13;0.80;;;;;;;;;;10456047;28;20198;-71
2022/06/14 01:58:44;;;;;;;4.47;0.90;;;;;;;;;;10455151;28;20213;-72
2022/06/14 02:09:33;;;;;;;4.35;1.20;;;;;;;;;;10307494;28;20653;-71
2022/06/14 02:14:37;;;;;;;2.58;0.90;;;;;;;;;;10308717;28;21101;-71
2022/06/14 02:19:44;;;;;;;1.08;0.98;;;;;;;;;;10300816;28;20213;-72
2022/06/14 02:24:53;;;;;;;2.60;0.73;;;;;;;;;;10304240;28;20225;-71
2022/06/14 02:30:04;;;;;;;1.65;0.80;;;;;;;;;;10303138;28;20251;-71
2022/06/14 02:35:18;;;;;;;3.08;1.05;;;;;;;;;;10304377;28;20220;-72
2022/06/14 02:40:32;;;;;;;4.00;1.00;;;;;;;;;;10437133;28;20764;-71
2022/06/14 02:45:36;;;;;;;9.75;1.45;;;;;;;;;;10478673;28;20175;-72
2022/06/14 02:50:47;;;;;;;5.80;1.20;;;;;;;;;;10481609;28;20187;-71
2022/06/14 02:55:52;;;;;;;1.25;0.90;;;;;;;;;;10459335;28;20186;-71
2022/06/14 03:00:57;;;;;;;3.97;1.50;;;;;;;;;;10461494;28;20345;-71
2022/06/14 03:06:04;;;;;;;3.72;1.42;;;;;;;;;;10457833;28;20664;-71
2022/06/14 03:11:09;;;;;;;2.10;1.00;;;;;;;;;;10448489;28;20183;-70
2022/06/14 03:16:19;;;;;;;2.78;1.23;;;;;;;;;;10455916;28;20183;-71
2022/06/14 03:21:22;;;;;;;4.78;1.33;;;;;;;;;;10482659;28;20256;-72
2022/06/14 03:26:42;;;;;;;2.63;1.00;;;;;;;;;;10484745;28;20397;-72
2022/06/14 03:31:47;;;;;;;1.58;0.80;;;;;;;;;;10477835;28;20201;-72
2022/06/14 03:36:48;;;;;;;6.78;0.90;;;;;;;;;;10457386;28;20189;-71
2022/06/14 03:41:51;;;;;;;4.05;1.35;;;;;;;;;;10485028;28;20202;-72
2022/06/14 03:47:10;;;;;;;3.95;1.17;;;;;;;;;;10458045;28;20221;-72
2022/06/14 03:52:30;;;;;;;4.25;1.10;;;;;;;;;;10488490;28;20240;-72
2022/06/14 03:57:44;;;;;;;8.55;1.42;;;;;;;;;;10492345;28;20212;-71
2022/06/14 04:03:11;;;;;;;4.70;1.13;;;;;;;;;;10468737;28;20696;-71
2022/06/14 04:08:25;;;;;;;6.53;1.30;;;;;;;;;;10473978;28;20187;-72
2022/06/14 04:13:45;;;;;;;4.93;1.52;;;;;;;;;;10462348;28;20183;-72
2022/06/14 04:19:02;;;;;;;3.40;1.73;;;;;;;;;;10486929;28;20174;-71
2022/06/14 04:24:06;;;;;;;5.78;1.40;;;;;;;;;;10462476;28;20205;-70
2022/06/14 04:29:18;;;;;;;3.80;1.50;;;;;;;;;;10485037;28;20309;-72
2022/06/14 04:34:38;;;;;;;3.70;1.20;;;;;;;;;;10457256;28;20215;-71
2022/06/14 04:39:45;;;;;;;4.00;1.33;;;;;;;;;;10477445;28;20178;-71
2022/06/14 04:44:53;;;;;;;2.85;1.52;;;;;;;;;;10462037;28;20201;-71
2022/06/14 04:49:54;;;;;;;2.63;1.60;;;;;;;;;;10490599;28;20230;-71
2022/06/14 04:55:15;;;;;;;5.07;1.73;;;;;;;;;;10483332;28;20178;-71
2022/06/14 05:00:20;;;;;;;3.42;1.13;;;;;;;;;;10457883;28;20692;-70
2022/06/14 05:05:24;;;;;;;3.22;1.08;;;;;;;;;;10466819;28;20206;-70
2022/06/14 05:10:32;;;;;;;4.03;1.40;;;;;;;;;;10460916;28;21451;-70
2022/06/14 05:15:37;;;;;;;1.90;0.95;;;;;;;;;;10464581;28;20182;-70
2022/06/14 05:20:41;;;;;;;9.73;1.42;;;;;;;;;;10483486;28;20209;-70
2022/06/14 05:25:47;;;;;;;4.88;1.05;;;;;;;;;;10479518;28;20273;-70
2022/06/14 05:30:58;;;;;;;7.57;1.30;;;;;;;;;;10459365;28;20589;-70
2022/06/14 05:36:14;;;;;;;3.70;1.23;;;;;;;;;;10481428;28;20182;-70
2022/06/14 05:41:18;;;;;;;4.20;1.13;;;;;;;;;;10456724;28;20721;-70
2022/06/14 05:46:24;;;;;;;3.05;1.20;;;;;;;;;;10480198;28;20214;-70
2022/06/14 05:51:27;;;;;;;4.43;1.17;;;;;;;;;;10487722;28;20186;-70
2022/06/14 05:56:35;;;;;;;3.17;1.20;;;;;;;;;;10459820;28;20211;-70
2022/06/14 06:01:42;;;;;;;2.75;1.15;;;;;;;;;;10463992;28;20213;-67
2022/06/14 06:06:45;;;;;;;5.22;1.30;;;;;;;;;;10474985;28;20581;-69
2022/06/14 06:11:56;;;;;;;5.60;1.20;;;;;;;;;;10485722;28;20190;-68
2022/06/14 06:17:05;;;;;;;9.15;1.13;;;;;;;;;;10477674;28;20186;-69
2022/06/14 06:22:10;;;;;;;2.85;0.98;;;;;;;;;;10469275;28;20654;-69
2022/06/14 06:27:12;;;;;;;5.72;1.48;;;;;;;;;;10488911;28;20292;-69
2022/06/14 06:32:13;;;;;;;2.50;0.88;;;;;;;;;;10475767;28;20241;-69
2022/06/14 06:37:18;;;;;;;7.30;1.20;;;;;;;;;;10462003;28;20179;-68
2022/06/14 06:42:25;;;;;;;10.18;0.90;;;;;;;;;;10475498;28;20206;-68
2022/06/14 06:47:31;;;;;;;1.95;0.65;;;;;;;;;;10490644;28;20218;-69
2022/06/14 06:52:43;;;;;;;3.22;0.77;;;;;;;;;;10492280;28;20179;-68
2022/06/14 06:57:46;;;;;;;3.38;1.02;;;;;;;;;;10471029;28;20552;-68
2022/06/14 07:02:49;;;;;;;8.13;1.00;;;;;;;;;;10473896;28;20607;-69
2022/06/14 07:07:50;;;;;;;2.45;0.70;;;;;;;;;;10468470;28;20233;-68
2022/06/14 07:13:03;;;;;;;8.23;1.10;;;;;;;;;;10491408;28;20200;-68
2022/06/14 07:18:10;;;;;;;3.42;0.80;;;;;;;;;;10456789;28;20194;-68
2022/06/14 07:23:21;;;;;;;1.88;0.55;;;;;;;;;;10496436;28;20564;-68
2022/06/14 07:28:31;;;;;;;3.25;0.90;;;;;;;;;;10500264;28;20202;-68
2022/06/14 07:33:33;;;;;;;1.30;0.50;;;;;;;;;;10497269;28;20244;-68
2022/06/14 07:38:46;;;;;;;2.15;0.50;;;;;;;;;;10494042;28;20242;-67
2022/06/14 07:43:50;;;;;;;4.22;0.50;;;;;;;;;;10500880;28;20287;-68
2022/06/14 07:48:58;;;;;;;0.88;0.52;;;;;;;;;;10504676;28;20252;-68
2022/06/14 07:54:05;;;;;;;0.95;0.45;;;;;;;;;;10463583;28;20771;-68
2022/06/14 07:59:11;;;;;;;0.47;0.40;;;;;;;;;;10480075;28;20740;-69
2022/06/14 08:04:31;;;;;;;0.60;0.40;;;;;;;;;;10472781;28;20260;-66
2022/06/14 08:09:41;;;;;;;3.03;0.60;;;;;;;;;;10454397;28;20183;-69
2022/06/14 08:14:58;;;;;;;1.33;0.60;;;;;;;;;;10481991;28;20293;-67
2022/06/14 08:20:07;;;;;;;2.35;0.60;;;;;;;;;;10481448;28;20260;-68
2022/06/14 08:25:16;;;;;;;3.17;0.70;;;;;;;;;;10480169;28;20274;-67
2022/06/14 08:30:35;;;;;;;2.47;0.70;;;;;;;;;;10475646;28;20264;-67
2022/06/14 08:35:39;;;;;;;1.67;0.43;;;;;;;;;;10479234;28;20661;-67
2022/06/14 08:41:01;;;;;;;2.88;0.60;;;;;;;;;;10482051;28;20213;-70
2022/06/14 08:46:26;;;;;;;3.83;0.85;;;;;;;;;;10478233;28;20295;-68
2022/06/14 08:51:46;;;;;;;2.50;0.98;;;;;;;;;;10473626;28;20183;-67
2022/06/14 08:56:47;;;;;;;3.25;0.88;;;;;;;;;;10469886;28;20206;-68
2022/06/14 09:02:21;;;;;;;3.60;0.75;;;;;;;;;;10467592;28;20232;-67
2022/06/14 09:07:22;;;;;;;1.48;0.60;;;;;;;;;;10449210;28;20948;-67
2022/06/14 09:12:24;;;;;;;2.78;0.73;;;;;;;;;;10480154;28;20193;-66
2022/06/14 09:17:43;;;;;;;3.28;0.98;;;;;;;;;;10482570;28;20227;-67
2022/06/14 09:22:47;;;;;;;1.35;0.70;;;;;;;;;;10476781;28;20237;-66
2022/06/14 09:27:54;;;;;;;2.33;0.70;;;;;;;;;;10449706;28;21204;-67
2022/06/14 09:33:14;;;;;;;1.17;0.50;;;;;;;;;;10476413;28;20218;-67
2022/06/14 09:38:31;;;;;;;4.10;0.80;;;;;;;;;;10473311;28;20713;-67
2022/06/14 09:43:40;;;;;;;7.68;0.77;;;;;;;;;;10478173;28;20292;-67
2022/06/14 09:48:48;;;;;;;5.07;0.50;;;;;;;;;;10477126;28;20314;-67
2022/06/14 09:53:50;;;;;;;5.50;0.75;;;;;;;;;;10481039;28;20664;-67
2022/06/14 09:59:01;;;;;;;1.75;0.70;;;;;;;;;;10476001;28;20209;-67
2022/06/14 10:04:02;;;;;;;2.28;0.70;;;;;;;;;;10478588;28;20724;-66
2022/06/14 10:09:13;;;;;;;2.17;0.65;;;;;;;;;;10463151;28;20236;-66
2022/06/14 10:14:20;;;;;;;0.70;0.70;;;;;;;;;;10492883;28;20182;-66
2022/06/14 10:19:21;;;;;;;2.25;0.65;;;;;;;;;;10484794;28;20186;-67
2022/06/14 10:24:31;;;;;;;0.77;0.50;;;;;;;;;;10483237;28;20226;-67
2022/06/14 10:29:35;;;;;;;0.52;0.50;;;;;;;;;;10481205;28;20255;-66
2022/06/14 10:34:55;;;;;;;1.23;0.80;;;;;;;;;;10486506;28;20211;-66
2022/06/14 10:40:15;;;;;;;2.03;0.52;;;;;;;;;;10489233;28;20232;-66
2022/06/14 10:45:19;;;;;;;0.73;0.50;;;;;;;;;;10484645;28;20185;-66
2022/06/14 10:50:27;;;;;;;1.67;0.52;;;;;;;;;;10483132;28;20197;-66
2022/06/14 10:55:37;;;;;;;2.45;0.80;;;;;;;;;;10487002;28;20203;-68
2022/06/14 11:00:42;;;;;;;1.33;0.90;;;;;;;;;;10488651;28;21157;-68
2022/06/14 11:05:59;;;;;;;2.58;0.70;;;;;;;;;;10495148;28;20310;-67
2022/06/14 11:11:12;;;;;;;2.72;0.80;;;;;;;;;;10491483;28;20218;-68
2022/06/14 11:16:19;;;;;;;3.45;0.80;;;;;;;;;;10495683;28;20204;-68
2022/06/14 11:21:27;;;;;;;2.70;0.55;;;;;;;;;;10489302;28;20199;-67
2022/06/14 11:26:33;;;;;;;2.13;0.57;;;;;;;;;;10461388;28;20213;-67
2022/06/14 11:31:40;;;;;;;2.20;0.60;;;;;;;;;;10490696;28;20303;-67
2022/06/14 11:36:53;;;;;;;2.65;0.52;;;;;;;;;;10494527;28;20204;-67
2022/06/14 11:41:54;;;;;;;0.60;0.40;;;;;;;;;;10493578;28;20252;-67
2022/06/14 11:47:01;;;;;;;2.88;0.50;;;;;;;;;;10484532;28;20587;-67
2022/06/14 11:52:10;;;;;;;2.15;0.60;;;;;;;;;;10487528;28;20177;-67
2022/06/14 11:57:25;;;;;;;2.65;0.80;;;;;;;;;;10495680;28;20936;-67
2022/06/14 12:02:36;;;;;;;0.90;0.60;;;;;;;;;;10498999;28;20221;-68
2022/06/14 12:07:41;;;;;;;1.95;0.50;;;;;;;;;;10492775;28;20265;-67
2022/06/14 12:12:53;;;;;;;2.08;0.60;;;;;;;;;;10442611;28;20196;-68
2022/06/14 12:17:56;;;;;;;12.55;1.55;;;;;;;;;;10481436;28;20298;-66
2022/06/14 12:23:16;;;;;;;3.50;0.60;;;;;;;;;;10497319;28;20913;-67
2022/06/14 12:28:17;;;;;;;1.92;0.60;;;;;;;;;;10496626;28;20194;-67
2022/06/14 12:33:18;;;;;;;0.50;0.50;;;;;;;;;;10495925;28;20217;-68
2022/06/14 12:38:22;;;;;;;1.33;0.70;;;;;;;;;;10498643;28;20273;-67
2022/06/14 12:43:26;;;;;;;1.42;0.60;;;;;;;;;;10497965;28;20202;-67
2022/06/14 12:48:36;;;;;;;2.63;0.80;;;;;;;;;;10492115;28;20228;-68
2022/06/14 12:53:37;;;;;;;1.40;0.60;;;;;;;;;;10493910;28;20186;-67
2022/06/14 12:58:57;;;;;;;2.63;0.60;;;;;;;;;;10495540;28;20209;-67
2022/06/14 13:04:00;;;;;;;1.75;0.65;;;;;;;;;;10497425;28;20373;-67
2022/06/14 13:09:08;;;;;;;1.02;0.50;;;;;;;;;;10494889;28;20181;-67
2022/06/14 13:14:11;;;;;;;1.15;0.63;;;;;;;;;;10502981;28;20602;-67
2022/06/14 13:19:21;;;;;;;1.80;0.50;;;;;;;;;;10494282;28;20221;-67
2022/06/14 13:24:22;;;;;;;3.03;0.50;;;;;;;;;;10498720;28;20292;-67
2022/06/14 13:29:33;;;;;;;3.60;0.85;;;;;;;;;;10496247;28;20209;-68
2022/06/14 13:34:50;;;;;;;1.58;0.60;;;;;;;;;;10500415;28;20230;-68
2022/06/14 13:40:00;;;;;;;2.78;0.60;;;;;;;;;;10488596;28;20604;-67
2022/06/14 13:45:08;;;;;;;4.97;0.60;;;;;;;;;;10456221;28;20213;-67
2022/06/14 13:50:29;;;;;;;0.50;0.50;;;;;;;;;;10463492;28;20228;-64
2022/06/14 13:55:32;;;;;;;3.13;0.60;;;;;;;;;;10461857;28;20197;-64
2022/06/14 14:00:44;;;;;;;2.83;0.55;;;;;;;;;;10478208;28;20237;-63
2022/06/14 14:06:04;;;;;;;1.48;0.60;;;;;;;;;;10464188;28;20178;-64
2022/06/14 14:11:11;;;;;;;2.20;0.80;;;;;;;;;;10488709;28;20206;-64
2022/06/14 14:16:16;;;;;;;3.08;0.70;;;;;;;;;;10462166;28;20644;-64
2022/06/14 14:21:22;;;;;;;2.22;0.60;;;;;;;;;;10493439;28;20209;-64
2022/06/14 14:26:35;;;;;;;2.88;0.68;;;;;;;;;;10486309;28;20567;-64
2022/06/14 14:31:41;;;;;;;2.35;0.82;;;;;;;;;;10479892;28;20214;-64
2022/06/14 14:36:51;;;;;;;3.80;0.70;;;;;;;;;;10479850;28;20185;-65
2022/06/14 14:42:01;;;;;;;2.50;0.88;;;;;;;;;;10476086;28;20205;-66
2022/06/14 14:47:14;;;;;;;2.13;0.73;;;;;;;;;;10461309;28;20242;-66
2022/06/14 14:52:26;;;;;;;3.30;0.82;;;;;;;;;;10397406;28;20191;-65
2022/06/14 14:57:34;;;;;;;4.60;0.70;;;;;;;;;;10438104;28;20211;-65
2022/06/14 15:08:09;;;;;;;3.25;0.73;;;;;;;;;;10435387;28;20180;-65
2022/06/14 15:13:10;;;;;;;1.13;0.50;;;;;;;;;;10435873;28;20217;-66
2022/06/14 15:23:40;;;;;;;4.68;0.68;;;;;;;;;;10440401;28;20215;-68
2022/06/14 15:28:48;;;;;;;2.15;0.77;;;;;;;;;;10429323;28;20245;-69
2022/06/14 15:33:49;;;;;;;2.13;0.65;;;;;;;;;;10403276;28;20218;-68
2022/06/14 15:38:51;;;;;;;3.83;0.68;;;;;;;;;;10435701;28;20193;-68
2022/06/14 15:44:02;;;;;;;1.65;0.60;;;;;;;;;;10442747;28;20309;-68
2022/06/14 15:49:13;;;;;;;2.47;0.65;;;;;;;;;;10446363;28;20218;-68
2022/06/14 15:54:23;;;;;;;1.30;0.55;;;;;;;;;;10451343;28;20190;-68
2022/06/14 15:59:27;;;;;;;4.82;0.85;;;;;;;;;;10440970;28;20199;-68
2022/06/14 16:04:32;;;;;;;4.63;0.60;;;;;;;;;;10435917;28;20273;-68
2022/06/14 16:09:35;;;;;;;3.40;0.82;;;;;;;;;;10442842;28;20194;-69
2022/06/14 16:14:43;;;;;;;2.63;0.55;;;;;;;;;;10415721;28;20179;-68
2022/06/14 16:19:56;;;;;;;2.28;0.50;;;;;;;;;;10413983;23;20233;-74
2022/06/14 16:24:58;;;;;;;2.35;0.68;;;;;;;;;;10397059;28;20229;-74
2022/06/14 16:30:05;;;;;;;3.78;0.85;;;;;;;;;;10379605;28;20225;-74
2022/06/14 16:35:24;;;;;;;2.63;0.73;;;;;;;;;;10395610;28;20227;-74
2022/06/14 16:40:30;;;;;;;2.95;0.70;;;;;;;;;;10384264;28;20245;-74
2022/06/14 16:45:40;;;;;;;1.65;0.50;;;;;;;;;;10400159;28;20844;-73
2022/06/14 16:50:50;;;;;;;0.60;0.60;;;;;;;;;;10400874;28;20179;-74
2022/06/14 16:55:54;;;;;;;2.38;0.68;;;;;;;;;;10411185;28;20684;-74
2022/06/14 17:00:58;;;;;;;3.53;0.80;;;;;;;;;;10400099;28;20301;-73
2022/06/14 17:06:07;;;;;;;3.20;0.60;;;;;;;;;;10381102;28;20773;-73
2022/06/14 17:11:21;;;;;;;0.55;0.50;;;;;;;;;;10399644;28;20205;-74
2022/06/14 17:16:28;;;;;;;1.30;0.60;;;;;;;;;;10395905;28;20227;-73
2022/06/14 17:21:32;;;;;;;1.20;0.50;;;;;;;;;;10397340;28;20211;-73
2022/06/14 17:31:53;;;;;;;0.80;0.68;;;;;;;;;;10392420;28;20237;-73
2022/06/14 17:37:13;;;;;;;2.70;0.55;;;;;;;;;;10398816;28;20761;-73
2022/06/14 17:42:16;;;;;;;1.60;0.50;;;;;;;;;;10397889;28;20226;-73
2022/06/14 17:47:19;;;;;;;2.35;0.70;;;;;;;;;;10399194;28;20648;-73
2022/06/14 17:52:27;;;;;;;2.10;0.47;;;;;;;;;;10399963;28;20194;-73
2022/06/14 17:57:33;;;;;;;1.50;0.60;;;;;;;;;;10396763;28;20191;-73
2022/06/14 18:02:38;;;;;;;1.25;0.70;;;;;;;;;;10402806;28;20305;-73
2022/06/14 18:07:47;;;;;;;1.27;0.50;;;;;;;;;;10386741;28;20258;-73
2022/06/14 18:12:57;;;;;;;0.60;0.40;;;;;;;;;;10381362;28;20195;-73
2022/06/14 18:17:59;;;;;;;1.25;0.73;;;;;;;;;;10402606;28;20227;-73
2022/06/14 18:23:09;;;;;;;2.80;0.70;;;;;;;;;;10401543;28;20301;-73
2022/06/14 18:28:10;;;;;;;3.72;0.60;;;;;;;;;;10387299;28;20227;-73
2022/06/14 18:33:22;;;;;;;4.00;0.60;;;;;;;;;;10395767;28;20717;-73
2022/06/14 18:38:43;;;;;;;3.53;0.90;;;;;;;;;;10390180;28;20723;-73
2022/06/14 18:44:03;;;;;;;3.15;0.73;;;;;;;;;;10401702;28;20206;-73
2022/06/14 18:49:06;;;;;;;2.40;0.80;;;;;;;;;;10397429;28;20186;-73
2022/06/14 18:54:09;;;;;;;3.67;0.90;;;;;;;;;;10381974;28;20777;-73
2022/06/14 18:59:12;;;;;;;2.10;0.70;;;;;;;;;;10398629;28;20194;-73
2022/06/14 19:04:23;;;;;;;1.02;0.68;;;;;;;;;;10397596;28;20239;-73
2022/06/14 19:09:29;;;;;;;2.40;0.63;;;;;;;;;;10397276;28;20183;-73
2022/06/14 19:14:33;;;;;;;1.85;0.63;;;;;;;;;;10392782;28;20203;-73
2022/06/14 19:19:38;;;;;;;6.25;0.70;;;;;;;;;;10403837;28;20223;-73
2022/06/14 19:24:58;;;;;;;1.48;0.60;;;;;;;;;;10404930;28;20879;-73
2022/06/14 19:30:08;;;;;;;2.30;0.77;;;;;;;;;;10406758;28;20201;-72
2022/06/14 19:35:16;;;;;;;2.03;0.50;;;;;;;;;;10408651;28;20306;-73
2022/06/14 19:40:37;;;;;;;2.67;0.70;;;;;;;;;;10404762;28;20674;-72
2022/06/14 19:45:40;;;;;;;1.15;0.70;;;;;;;;;;10409428;28;20326;-73
2022/06/14 19:50:45;;;;;;;2.47;0.93;;;;;;;;;;10415979;28;20189;-73
2022/06/14 19:55:47;;;;;;;1.55;0.70;;;;;;;;;;10410625;28;20220;-73
2022/06/14 20:00:53;;;;;;;0.47;0.47;;;;;;;;;;10413791;28;20274;-72
2022/06/14 20:05:54;;;;;;;1.95;0.70;;;;;;;;;;10416319;28;20199;-72
2022/06/14 20:10:55;;;;;;;1.13;0.63;;;;;;;;;;10412641;28;20191;-71
2022/06/14 20:16:00;;;;;;;1.40;0.80;;;;;;;;;;10402375;28;20677;-72
2022/06/14 20:21:03;;;;;;;2.22;0.88;;;;;;;;;;10402540;28;20216;-72
2022/06/14 20:26:07;;;;;;;2.72;0.95;;;;;;;;;;10402831;28;20675;-72
2022/06/14 20:31:09;;;;;;;2.90;1.25;;;;;;;;;;10396743;28;20245;-72
2022/06/14 20:36:40;;;;;;;1.90;0.77;;;;;;;;;;10401649;28;21131;-72
2022/06/14 20:41:41;;;;;;;1.05;0.95;;;;;;;;;;10369644;28;20215;-72
2022/06/14 20:46:43;;;;;;;1.67;0.95;;;;;;;;;;10385348;28;20195;-72
2022/06/14 20:51:46;;;;;;;1.85;1.02;;;;;;;;;;10385745;28;20268;-72
2022/06/14 20:56:56;;;;;;;4.65;0.85;;;;;;;;;;10391584;28;20315;-72
2022/06/14 21:01:57;;;;;;;3.80;1.05;;;;;;;;;;10386669;28;20238;-71
2022/06/14 21:06:59;;;;;;;1.08;0.88;;;;;;;;;;10395269;28;20648;-72
2022/06/14 21:12:01;;;;;;;2.85;1.15;;;;;;;;;;10391654;28;20243;-74
2022/06/14 21:17:02;;;;;;;2.08;1.30;;;;;;;;;;10373948;28;20683;-72
2022/06/14 21:22:09;;;;;;;2.58;1.58;;;;;;;;;;10386822;28;20301;-72
2022/06/14 21:27:14;;;;;;;3.38;1.33;;;;;;;;;;10393446;28;20706;-72
2022/06/14 21:32:15;;;;;;;1.65;0.88;;;;;;;;;;10387235;28;20222;-72
2022/06/14 21:37:28;;;;;;;3.88;1.00;;;;;;;;;;10382872;28;20233;-72
2022/06/14 21:42:30;;;;;;;2.42;1.27;;;;;;;;;;10388671;28;20215;-71
2022/06/14 21:47:34;;;;;;;1.15;1.10;;;;;;;;;;10374990;28;20261;-71
2022/06/14 21:52:37;;;;;;;1.50;0.95;;;;;;;;;;10395572;28;20198;-72
2022/06/14 21:57:43;;;;;;;2.28;1.33;;;;;;;;;;10389620;28;20199;-72
2022/06/14 22:02:46;;;;;;;3.38;1.10;;;;;;;;;;10401394;28;20312;-71
2022/06/14 22:07:47;;;;;;;5.30;1.70;;;;;;;;;;10398197;28;20276;-72
2022/06/14 22:12:49;;;;;;;3.50;1.25;;;;;;;;;;10398480;28;20196;-71
2022/06/14 22:17:50;;;;;;;1.85;1.65;;;;;;;;;;10395395;28;20231;-72
2022/06/14 22:22:51;;;;;;;1.98;1.45;;;;;;;;;;10399680;28;20206;-72
2022/06/14 22:27:53;;;;;;;4.88;1.23;;;;;;;;;;10396388;28;20705;-71
2022/06/14 22:32:54;;;;;;;2.92;1.67;;;;;;;;;;10393225;28;20214;-71
2022/06/14 22:37:55;;;;;;;2.05;1.20;;;;;;;;;;10391691;28;20242;-71
2022/06/14 22:42:56;;;;;;;2.00;1.50;;;;;;;;;;10398289;28;20213;-72
2022/06/14 22:47:57;;;;;;;1.33;1.33;;;;;;;;;;10396269;28;20290;-72
2022/06/14 22:53:05;;;;;;;2.88;1.30;;;;;;;;;;10398141;28;20441;-71
2022/06/14 22:58:09;;;;;;;1.70;1.60;;;;;;;;;;10408552;28;20546;-72
2022/06/14 23:03:10;;;;;;;1.88;1.33;;;;;;;;;;10409258;28;20211;-71
2022/06/14 23:08:11;;;;;;;3.00;1.20;;;;;;;;;;10413906;28;20831;-72
2022/06/14 23:13:12;;;;;;;4.07;1.73;;;;;;;;;;10412496;28;20210;-71
2022/06/14 23:18:13;;;;;;;5.15;1.58;;;;;;;;;;10414382;28;20699;-71
2022/06/14 23:23:14;;;;;;;1.70;1.13;;;;;;;;;;10411140;28;20249;-73
2022/06/14 23:28:16;;;;;;;1.38;1.27;;;;;;;;;;10409621;28;20217;-73
2022/06/14 23:33:17;;;;;;;1.92;1.20;;;;;;;;;;10391167;28;20207;-73
2022/06/14 23:38:18;;;;;;;3.40;1.60;;;;;;;;;;10407878;28;20206;-73
2022/06/14 23:43:19;;;;;;;3.33;1.52;;;;;;;;;;10416591;28;20216;-73
2022/06/14 23:48:21;;;;;;;1.63;1.30;;;;;;;;;;10408492;28;20294;-71
2022/06/14 23:53:22;;;;;;;5.13;1.98;;;;;;;;;;10408411;28;20600;-72
2022/06/14 23:58:24;;;;;;;2.50;1.60;;;;;;;;;;10410837;28;20245;-71
